TAF/METAR LISTING

Current time:4/24/6:41 Z
Looking Back to:4/24/06:41 Z, going back 0 hour(s)

METAR:

PAFA 240553Z 22003KT 2SM -SN BR SCT007 BKN015 OVC035 00/M02
A2986 RMK AO2 SLP118 P0001 60002 T00001022 10011 20000 53017
VISNO NE =

______________________________________

TAF:
TAFAFA
TAF
PAFA 240532Z 2406/2512 24004KT 2SM -SN BR SCT015 BKN020 OVC030
TEMPO 2406/2409 1 1/2SM -SN BR BKN015 BKN020 OVC030
FM241400 01004KT 6SM -SN BKN025 BKN035 OVC050
FM242200 30004KT P6SM VCSH SCT035 BKN050 OVC100
FM250600 34004KT P6SM BKN100 =